• Join FlightAware (Why Join?)
  • Login
  • US Flag 
09:38PM EDT


 

Airport Tracker/Info


-or-


 

Live Flight TrackerFlight Track Log ✈ UPS1337 ✈ 14-Mar-2014 ✈ KPIE - KRDU

Flight Track Log - Related Links

Times and Time Zones

All times are in EDT time to prevent confusion due to time zone crossing. See the UPS1337 flight status page for this flight to view local times or setup timezone preferences in your user account.

Time Position Orientation Groundspeed Altitude Reporting Facility
EDT Latitude Longitude Course Direction KTS MPH feet Rate Location/Type
09:52PM 27.9167 -82.6833 North 176 203 1,000  Level Tampa TRACON
09:53PM 28.0078 -82.6692 North 194 223 4,800 2,640 Climbing Jacksonville Center
09:59PM 28.5725 -82.5719 11° North 433 498 20,200 2,760 Climbing FlightAware ADS-B (KMCO)
09:59PM 28.6373 -82.5577 11° North 436 502 21,700 2,100 Climbing FlightAware ADS-B (KMCO)
10:01PM 28.8218 -82.5442 356° North 452 520 24,600 2,100 Climbing FlightAware ADS-B (KMCO)
10:02PM 28.9628 -82.5565 356° North 457 526 27,200 2,400 Climbing FlightAware ADS-B (KMCO)
10:02PM 29.0246 -82.5616 356° North 453 521 28,600 3,120 Climbing FlightAware ADS-B (KMCO)
10:03PM 29.1052 -82.5682 356° North 434 499 30,800 2,460 Climbing FlightAware ADS-B (KMCO)
10:04PM 29.1916 -82.5754 356° North 425 489 32,000 360 Climbing FlightAware ADS-B (KMCO)
10:06PM 29.4668 -82.5986 356° North 418 481 32,000  Level FlightAware ADS-B (KMCO)
10:07PM 29.5271 -82.6035 356° North 418 481 32,000  Level FlightAware ADS-B (KMCO)
10:07PM 29.5859 -82.6083 356° North 416 479 32,000  Level FlightAware ADS-B (KMCO)
10:08PM 29.6429 -82.6132 356° North 417 480 32,000  Level FlightAware ADS-B (KMCO)
10:08PM 29.6973 -82.6178 356° North 418 481 32,000  Level FlightAware ADS-B (KMCO)
10:09PM 29.7784 -82.6246 356° North 419 482 32,000  Level FlightAware ADS-B (KMCO)
10:09PM 29.8545 -82.6309 356° North 420 483 32,000 840 Level FlightAware ADS-B (KMCO)
10:10PM 29.9136 -82.6359 356° North 414 476 33,000 960 Climbing FlightAware ADS-B (KMCO)
10:10PM 29.9725 -82.6409 356° North 415 478 33,000  Level FlightAware ADS-B (KMCO)
10:11PM 30.0287 -82.6458 356° North 412 474 33,000  Level FlightAware ADS-B (KMCO)
10:11PM 30.0857 -82.6506 356° North 410 472 33,000  Level FlightAware ADS-B (KMCO)
10:12PM 30.1426 -82.6553 356° North 408 470 33,000  Level FlightAware ADS-B (KMCO)
10:13PM 30.2199 -82.6619 356° North 407 468 33,000  Level FlightAware ADS-B (KMCO)
10:13PM 30.2933 -82.6681 356° North 407 468 33,000  Level FlightAware ADS-B (KMCO)
10:14PM 30.3513 -82.6730 356° North 407 468 33,000  Level FlightAware ADS-B (KMCO)
10:14PM 30.4253 -82.6772 North 413 475 33,000  Level FlightAware ADS-B (KMCO)
10:15PM 30.4878 -82.6733 North 407 468 33,000  Level Jacksonville Center
10:16PM 30.6067 -82.6417 13° North 402 463 33,000  Level Jacksonville Center
10:17PM 30.7233 -82.5906 21° North 419 482 33,000  Level Jacksonville Center
10:18PM 30.8381 -82.5344 23° Northeast 433 498 33,000  Level Jacksonville Center
10:19PM 30.9550 -82.4783 22° Northeast 444 511 33,000  Level Jacksonville Center
10:20PM 31.0736 -82.4194 23° Northeast 451 519 33,000  Level Jacksonville Center
10:21PM 31.1883 -82.3558 25° Northeast 456 525 33,000  Level Jacksonville Center
10:22PM 31.3028 -82.2872 27° Northeast 456 525 33,000  Level Jacksonville Center
10:23PM 31.4153 -82.2231 26° Northeast 456 525 33,000  Level Jacksonville Center
10:24PM 31.5297 -82.1492 29° Northeast 456 525 33,000  Level Jacksonville Center
10:25PM 31.6419 -82.0800 28° Northeast 450 518 33,000  Level Jacksonville Center
10:26PM 31.7667 -82.0031 28° Northeast 456 525 33,000  Level Jacksonville Center
10:27PM 31.8811 -81.9311 28° Northeast 456 525 33,000  Level Jacksonville Center
10:28PM 31.9828 -81.8686 28° Northeast 456 525 33,000  Level Jacksonville Center
10:29PM 32.1075 -81.7914 28° Northeast 450 518 33,000  Level Jacksonville Center
10:30PM 32.2239 -81.7211 27° Northeast 456 525 33,000  Level Jacksonville Center
10:31PM 32.3275 -81.6558 28° Northeast 456 525 33,000  Level Jacksonville Center
10:32PM 32.4519 -81.5756 29° Northeast 456 525 33,000  Level Jacksonville Center
10:33PM 32.5578 -81.5122 27° Northeast 456 525 33,000  Level Jacksonville Center
10:34PM 32.6675 -81.4417 28° Northeast 456 525 33,000  Level Jacksonville Center
10:35PM 32.7858 -81.3681 28° Northeast 464 534 33,000  Level Jacksonville Center
10:36PM 32.8975 -81.2944 29° Northeast 464 534 33,000 -120 Level Jacksonville Center
10:37PM 33.0114 -81.2231 28° Northeast 458 527 32,800 -600 Descending Jacksonville Center
10:38PM 33.1100 -81.1119 43° Northeast 463 533 31,800 -1,800 Descending Jacksonville Center
10:39PM 33.2108 -81.0033 42° Northeast 475 547 29,300 -2,280 Descending Jacksonville Center
10:40PM 33.3094 -80.8967 42° Northeast 475 547 27,300 -420 Descending Jacksonville Center
10:46PM 33.8978 -80.4892 22° Northeast 440 506 27,000 -60 Descending FlightAware ADS-B (KCDN)
10:46PM 33.9642 -80.4575 22° Northeast 444 511 27,000  Level FlightAware ADS-B (KCDN)
10:47PM 34.0227 -80.4302 22° Northeast 444 511 27,000 -240 Level FlightAware ADS-B (KCDN)
10:47PM 34.0824 -80.4020 22° Northeast 441 507 26,800 -1,800 Descending FlightAware ADS-B (KCDN)
10:48PM 34.1496 -80.3696 22° Northeast 435 501 25,000 -2,280 Descending FlightAware ADS-B (KCDN)
10:48PM 34.2140 -80.3388 22° Northeast 420 483 24,200 -720 Descending FlightAware ADS-B (KCDN)
10:49PM 34.3108 -80.2933 22° Northeast 418 481 23,800 -480 Descending Washington Center
10:50PM 34.4217 -80.2394 22° Northeast 418 481 23,200 -420 Descending Washington Center
10:51PM 34.5322 -80.1853 22° Northeast 418 481 23,000 -120 Descending Washington Center
10:52PM 34.6383 -80.1331 22° Northeast 418 481 23,000  Level Washington Center
10:53PM 34.7469 -80.0786 22° Northeast 418 481 23,000  Level Washington Center
10:54PM 34.8525 -79.9908 34° Northeast 413 475 23,000  Level Washington Center
10:55PM 34.9372 -79.8964 42° Northeast 411 473 23,000 -420 Level Washington Center
10:56PM 35.0242 -79.7997 42° Northeast 411 473 22,200 -900 Descending Washington Center
10:57PM 35.1108 -79.7053 42° Northeast 411 473 21,200 -1,020 Descending Washington Center
10:58PM 35.1933 -79.6128 42° Northeast 405 466 20,200 -1,020 Descending Washington Center
10:59PM 35.2733 -79.5328 39° Northeast 386 444 19,200 -600 Descending Washington Center
11:00PM 35.3044 -79.4072 73° East 364 419 19,000 -480 Descending Washington Center
11:01PM 35.3517 -79.2947 63° Northeast 371 427 18,300 -900 Descending Washington Center
11:02PM 35.3625 -79.2903 18° North 369 425 18,000 -2,100 Descending Washington Center
11:02PM 35.4311 -79.2933 358° North 295 339 16,200 -2,280 Descending Washington Center
11:02PM 35.4392 -79.3014 321° Northwest 296 341 16,000 -1,980 Descending Washington Center
11:03PM 35.4917 -79.3600 318° Northwest 240 276 14,200 -1,920 Descending Washington Center
11:04PM 35.5061 -79.3631 350° North 289 333 13,900 -1,680 Descending Washington Center
11:04PM 35.5622 -79.3097 38° Northeast 279 321 12,600 -1,620 Descending Washington Center
11:05PM 35.5733 -79.2872 59° Northeast 355 409 12,300 -1,500 Descending Washington Center
11:05PM 35.6192 -79.2203 50° Northeast 297 342 11,100 -1,620 Descending Washington Center
11:06PM 35.6322 -79.2031 47° Northeast 331 381 10,700 -1,800 Descending Washington Center
11:06PM 35.6886 -79.1314 46° Northeast 313 360 9,300 -1,620 Descending Washington Center
11:07PM 35.6972 -79.1217 43° Northeast 324 373 9,100 -1,320 Descending Washington Center
11:07PM 35.7469 -79.0572 46° Northeast 318 366 8,000 -1,440 Descending Washington Center
11:08PM 35.7600 -79.0372 51° Northeast 311 358 7,700 -1,560 Descending Washington Center
11:08PM 35.8056 -78.9803 45° Northeast 308 354 6,400 -1,680 Descending Washington Center
11:09PM 35.8228 -78.9581 46° Northeast 298 343 5,800 -1,800 Descending Washington Center
11:09PM 35.8661 -78.9061 44° Northeast 308 354 4,700 -1,500 Descending Washington Center
11:10PM 35.8833 -78.8864 43° Northeast 305 351 4,300 -600 Descending Washington Center
11:10PM 35.9325 -78.8472 33° Northeast 295 339 4,100 -360 Descending Washington Center
11:11PM 35.9581 -78.8253 35° Northeast 293 337 3,900 -840 Descending Washington Center
11:11PM 35.9986 -78.7911 34° Northeast 290 334 3,300 -840 Descending Washington Center
11:12PM 36.0222 -78.7689 37° Northeast 291 335 3,100 -240 Descending Washington Center
11:13PM 36.0550 -78.7058 57° Northeast 209 241 3,000 -420 Descending Washington Center
11:14PM 36.0206 -78.6661 137° Southeast 127 146 2,300 -360 Descending Washington Center
11:15PM 35.9914 -78.6725 190° South 101 116 2,300  Level Washington Center
11:16PM 35.9636 -78.6894 206° Southwest 109 125 2,300 -240 Level Washington Center
11:17PM 35.9419 -78.7219 231° Southwest 112 129 1,800 -480 Descending Washington Center
11:18PM 35.9225 -78.7444 223° Southwest 101 116 1,300 -600 Descending Washington Center
11:19PM 35.8989 -78.7742 226° Southwest 114 131 700 -600 Descending Washington Center
11:21PM 35.8776 -78.7875 North  Level Estimated